1 października 2022

Czas Kod Pogoda Temp. Widoczność Sufit Wiatr METAR/SPECI
12:30
M
25 °C 10 km+ 2.900 ft 090° 090° 17 kt METAR FMEE 010830Z AUTO 09017KT 9999 BKN029/// BKN034/// OVC056/// 25/18 Q1020 TEMPO 12015G25KT
12:00
V
26 °C 10 km+ 3.700 ft 100° 100° 16 kt METAR FMEE 010800Z AUTO 10016KT 9999 FEW024/// SCT031/// BKN037/// 26/18 Q1020 NOSIG
11:30
V
25 °C 10 km+ 5.600 ft 100° 100° 16 kt METAR FMEE 010730Z AUTO 10016KT 9999 FEW029/// SCT036/// BKN056/// 25/17 Q1020 NOSIG
11:00
V
25 °C 10 km+ - 100° 100° 17 kt METAR FMEE 010700Z AUTO 10017KT 9999 SCT029/// SCT046/// 25/17 Q1020 NOSIG
10:30
V
23 °C 10 km+ 4.600 ft 100° 100° 15 kt METAR FMEE 010630Z AUTO 10015KT 070V130 9999 FEW024/// SCT030/// BKN046/// 23/18 Q1021 NOSIG
10:00
V
24 °C 10 km+ 4.000 ft 090° 090° 17 kt METAR FMEE 010600Z AUTO 09017KT 9999 SCT032/// BKN040/// BKN046/// 24/17 Q1021 NOSIG
09:30
V
25 °C 10 km+ - 100° 100° 13 kt METAR FMEE 010530Z AUTO 10013KT 9999 NCD 25/16 Q1021 NOSIG
09:00
V
23 °C 10 km+ - 110° 110° 12 kt METAR FMEE 010500Z AUTO 11012KT 9999 NCD 23/17 Q1021
08:30
V
22 °C 10 km+ - 120° 120° 16 kt METAR FMEE 010430Z AUTO 12016KT 9999 FEW062/// 22/17 Q1021 NOSIG
08:00
V
22 °C 10 km+ - 130° 130° 14 kt METAR FMEE 010400Z AUTO 13014KT 9999 FEW044/// SCT054/// 22/17 Q1021 NOSIG
07:30
V
21 °C 10 km+ 5.400 ft 130° 130° 14 kt METAR FMEE 010330Z AUTO 13014KT 9999 FEW041/// BKN054/// 21/17 Q1020 NOSIG
07:00
V
21 °C 10 km+ 5.200 ft 120° 120° 8 kt METAR FMEE 010300Z AUTO 12008KT 9999 BKN052/// 21/17 Q1020 BECMG 12018KT
06:30
V
20 °C 10 km+ 5.200 ft 170° 170° 5 kt METAR FMEE 010230Z AUTO 17005KT 130V200 9999 FEW039/// BKN052/// 20/16 Q1020 BECMG 12018KT
06:00
V
20 °C 10 km+ 5.200 ft 200° 200° 6 kt METAR FMEE 010200Z AUTO 20006KT 9999 BKN052/// 20/16 Q1019 NOSIG
05:30
V
20 °C 10 km+ - 180° 180° 5 kt METAR FMEE 010130Z AUTO 18005KT 150V210 9999 SCT052/// 20/16 Q1019 NOSIG
05:00
V
18 °C 10 km+ 5.200 ft 200° 200° 3 kt METAR FMEE 010100Z AUTO 20003KT 160V230 9999 OVC052/// 18/14 Q1019 NOSIG
04:30
V
17 °C 10 km+ 5.600 ft 200° 200° 5 kt METAR FMEE 010030Z AUTO 20005KT 9999 BKN056/// 17/14 Q1019 NOSIG
04:00
V
17 °C 10 km+ - 170° 170° 3 kt METAR FMEE 010000Z AUTO 17003KT 090V210 9999 SCT054/// 17/13 Q1019 NOSIG
03:30
V
18 °C 10 km+ - 210° 210° 6 kt METAR FMEE 302330Z AUTO 21006KT 9999 NCD 18/12 Q1019 NOSIG
03:00
V
18 °C 10 km+ - Var Var 5 kt METAR FMEE 302300Z AUTO VRB05KT 9999 NCD 18/13 Q1019 NOSIG
02:30
V
16 °C 10 km+ - 180° 180° 4 kt METAR FMEE 302230Z AUTO 18004KT 140V210 9999 NCD 16/13 Q1019 NOSIG
02:00
V
17 °C 10 km+ - 190° 190° 6 kt METAR FMEE 302200Z AUTO 19006KT 9999 NCD 17/13 Q1019 NOSIG
01:30
V
17 °C 10 km+ - 190° 190° 4 kt METAR FMEE 302130Z AUTO 19004KT 120V270 9999 NCD 17/13 Q1019 NOSIG
01:00
V
18 °C 10 km+ - 150° 150° 7 kt METAR FMEE 302100Z AUTO 15007KT 110V180 9999 NCD 18/13 Q1019 NOSIG
00:30
V
19 °C 10 km+ - 150° 150° 8 kt METAR FMEE 302030Z AUTO 15008KT 9999 NCD 19/14 Q1020 NOSIG
00:00
V
19 °C 10 km+ - 180° 180° 5 kt METAR FMEE 302000Z AUTO 18005KT 9999 NCD 19/14 Q1020 NOSIG

30 września 2022

Czas Kod Pogoda Temp. Widoczność Sufit Wiatr METAR/SPECI
23:30
V
17 °C 10 km+ - 150° 150° 5 kt METAR FMEE 301930Z AUTO 15005KT 9999 NCD 17/14 Q1020 NOSIG
23:00
V
18 °C 10 km+ - 120° 120° 4 kt METAR FMEE 301900Z AUTO 12004KT 060V170 9999 NCD 18/14 Q1020 NOSIG
22:30
V
18 °C 10 km+ - 180° 180° 6 kt METAR FMEE 301830Z AUTO 18006KT 9999 NCD 18/14 Q1020 NOSIG
22:00
V
18 °C 10 km+ - 190° 190° 5 kt METAR FMEE 301800Z AUTO 19005KT 100V220 9999 NCD 18/15 Q1020 NOSIG
21:30
V
19 °C 10 km+ - 170° 170° 4 kt METAR FMEE 301730Z AUTO 17004KT 9999 NCD 19/15 Q1020 NOSIG
21:00
V
20 °C 10 km+ - 150° 150° 8 kt METAR FMEE 301700Z AUTO 15008KT 9999 NCD 20/16 Q1020 NOSIG
20:30
V
20 °C 10 km+ - 150° 150° 6 kt METAR FMEE 301630Z AUTO 15006KT 9999 NCD 20/16 Q1020 NOSIG
20:00
V
21 °C 10 km+ - 140° 140° 8 kt METAR FMEE 301600Z AUTO 14008KT 9999 NCD 21/16 Q1019 NOSIG
19:30
V
21 °C 10 km+ - 140° 140° 7 kt METAR FMEE 301530Z AUTO 14007KT 9999 NCD 21/16 Q1019 NOSIG
19:00
V
21 °C 10 km+ - 120° 120° 7 kt METAR FMEE 301500Z AUTO 12007KT 9999 FEW040/// SCT130/// 21/16 Q1018 NOSIG
18:30
V
22 °C 10 km+ 4.900 ft 120° 120° 9 kt METAR FMEE 301430Z AUTO 12009KT 9999 BKN049/// BKN058/// 22/17 Q1018 NOSIG
18:00
V
22 °C 10 km+ 4.200 ft 130° 130° 10 kt METAR FMEE 301400Z AUTO 13010KT 9999 OVC042/// 22/17 Q1018 NOSIG
17:30
V
23 °C 10 km+ 4.000 ft 130° 130° 11 kt METAR FMEE 301330Z AUTO 13011KT 9999 OVC040/// 23/16 Q1018 NOSIG
17:00
V
23 °C 10 km+ 4.000 ft 110° 110° 12 kt METAR FMEE 301300Z AUTO 11012KT 9999 OVC040/// 23/16 Q1018 NOSIG
16:30
V
23 °C 10 km+ 4.100 ft 120° 120° 13 kt METAR FMEE 301230Z AUTO 12013KT 9999 BKN041/// OVC047/// 23/16 Q1017 NOSIG
16:00
V
24 °C 10 km+ 4.100 ft 110° 110° 11 kt METAR FMEE 301200Z AUTO 11011KT 9999 OVC041/// 24/16 Q1017 NOSIG
15:30
V
24 °C 10 km+ 4.100 ft 100° 100° 10 kt METAR FMEE 301130Z AUTO 10010KT 9999 FEW034/// OVC041/// 24/16 Q1017 TEMPO 10016G27KT
15:00
V
24 °C 10 km+ 4.400 ft 130° 130° 12 kt METAR FMEE 301100Z AUTO 13012KT 9999 FEW031/// OVC044/// 24/17 Q1017 TEMPO 10016G27KT
14:30
V
24 °C 10 km+ 4.400 ft 130° 130° 12 kt METAR FMEE 301030Z AUTO 13012KT 100V160 9999 FEW033/// OVC044/// 24/17 Q1017 TEMPO 10016G27KT
14:00
V
25 °C 10 km+ 4.500 ft 120° 120° 13 kt METAR FMEE 301000Z AUTO 12013KT 9999 SCT030/// BKN045/// OVC052/// 25/17 Q1017 TEMPO 10016G27KT
13:30
V
24 °C 10 km+ 5.000 ft 120° 120° 14 kt METAR FMEE 300930Z AUTO 12014KT 9999 FEW030/// OVC050/// 24/17 Q1018 TEMPO 10016G27KT
13:00
V
24 °C 10 km+ 4.100 ft 130° 130° 16 kt METAR FMEE 300900Z AUTO 13016KT 9999 SCT029/// BKN041/// OVC056/// 24/17 Q1018 TEMPO 10016G27KT
12:30
V
25 °C 10 km+ 3.800 ft 110° 110° 17 kt METAR FMEE 300830Z AUTO 11017KT 9999 SCT030/// BKN038/// BKN064/// 25/18 Q1018 TEMPO 10016G27KT
12:00
V
24 °C 10 km+ 6.600 ft 120° 120° 16 kt METAR FMEE 300800Z AUTO 12016KT 9999 FEW029/// SCT036/// BKN066/// 24/17 Q1018 TEMPO 10016G27KT
11:30
V
24 °C 10 km+ 3.600 ft 110° 110° 17 kt METAR FMEE 300730Z AUTO 11017KT 9999 SCT028/// BKN036/// BKN047/// 24/17 Q1019 TEMPO 10016G27KT
11:00
V
24 °C 10 km+ 3.900 ft 110° 110° 14 kt METAR FMEE 300700Z AUTO 11014KT 9999 SCT028/// BKN039/// OVC047/// 24/18 Q1019 TEMPO 10016G27KT
10:30
V
23 °C 10 km+ 3.900 ft 130° 130° 13 kt METAR FMEE 300630Z AUTO 13013KT 9999 BKN039/// OVC046/// 23/18 Q1019 TEMPO 10016G27KT
10:00
V
22 °C 10 km+ 4.300 ft 140° 140° 14 kt METAR FMEE 300600Z AUTO 14014KT 9999 FEW029/// OVC043/// 22/18 Q1019 TEMPO 10016G27KT
09:30
V
22 °C 10 km+ 4.000 ft 140° 140° 11 kt METAR FMEE 300530Z AUTO 14011KT 9999 FEW030/// BKN040/// OVC046/// 22/18 Q1019 TEMPO 10016G27KT
09:00
V
21 °C 10 km+ 4.600 ft 150° 150° 16 kt METAR FMEE 300500Z AUTO 15016KT 9999 FEW031/// BKN046/// OVC070/// 21/17 Q1020 TEMPO 10016G27KT
08:30
V
21 °C 10 km+ 4.600 ft 150° 150° 14 kt METAR FMEE 300430Z AUTO 15014KT 9999 FEW030/// OVC046/// 21/17 Q1019 TEMPO 10016G27KT
08:00
V
21 °C 10 km+ 4.900 ft 150° 150° 15 kt METAR FMEE 300400Z AUTO 15015KT 9999 FEW041/// OVC049/// 21/18 Q1019 TEMPO 10016G27KT
07:30
V
20 °C 10 km+ 4.400 ft 150° 150° 13 kt METAR FMEE 300330Z AUTO 15013KT 9999 FEW032/// BKN044/// OVC060/// 20/17 Q1019 TEMPO 10016G27KT
07:00
V
19 °C 10 km+ 4.100 ft 140° 140° 13 kt METAR FMEE 300300Z AUTO 14013KT 9999 -RADZ FEW034/// BKN041/// OVC048/// 19/17 Q1019 TEMPO 10016G27KT
06:30
V
19 °C 10 km+ 5.200 ft 150° 150° 17 kt METAR FMEE 300230Z AUTO 15017KT 9999 FEW034/// BKN052/// BKN064/// 19/16 Q1018 TEMPO 10016G27KT
06:00
V
20 °C 10 km+ 6.200 ft 140° 140° 17 kt METAR FMEE 300200Z AUTO 14017KT 9999 FEW015/// BKN062/// BKN076/// 20/16 Q1018 NOSIG
05:30
V
19 °C 10 km+ 7.400 ft 140° 140° 7 kt METAR FMEE 300130Z AUTO 14007KT 110V190 9999 FEW046/// BKN074/// 19/15 Q1018 NOSIG
05:00
V
18 °C 10 km+ 3.600 ft 170° 170° 5 kt METAR FMEE 300100Z AUTO 17005KT 120V190 9999 BKN036/// OVC045/// ///TCU 18/15 Q1018 BECMG 12016KT FEW030
04:30
V
17 °C 10 km+ 4.100 ft 190° 190° 6 kt METAR FMEE 300030Z AUTO 19006KT 9999 BKN041/// 17/14 Q1018 BECMG 12016KT
04:00
V
18 °C 10 km+ - 160° 160° 6 kt METAR FMEE 300000Z AUTO 16006KT 9999 SCT039/// 18/14 Q1018 NOSIG
03:30
V
18 °C 10 km+ - 200° 200° 6 kt METAR FMEE 292330Z AUTO 20006KT 9999 FEW044/// 18/14 Q1018
03:00
V
18 °C 10 km+ - 200° 200° 7 kt METAR FMEE 292300Z AUTO 20007KT 9999 NCD 18/14 Q1018
02:30
V
19 °C 10 km+ - 250° 250° 6 kt METAR FMEE 292230Z AUTO 25006KT 9999 NCD 19/14 Q1018
02:00
V
18 °C 10 km+ - 210° 210° 4 kt METAR FMEE 292200Z AUTO 21004KT 9999 NCD 18/14 Q1018
01:30
V
18 °C 10 km+ - Var Var 3 kt METAR FMEE 292130Z AUTO VRB03KT 9999 NCD 18/14 Q1018
01:00
V
18 °C 10 km+ - 170° 170° 4 kt METAR FMEE 292100Z AUTO 17004KT 9999 FEW046/// 18/14 Q1019
00:30
V
18 °C 10 km+ - 220° 220° 4 kt METAR FMEE 292030Z AUTO 22004KT 200V260 9999 NCD 18/14 Q1019
00:00
V
20 °C 10 km+ - 240° 240° 4 kt METAR FMEE 292000Z AUTO 24004KT 9999 NCD 20/14 Q1019

29 września 2022

Czas Kod Pogoda Temp. Widoczność Sufit Wiatr METAR/SPECI
23:30
V
18 °C 10 km+ - 280° 280° 5 kt METAR FMEE 291930Z AUTO 28005KT 250V310 9999 NCD 18/14 Q1019
23:00
V
18 °C 10 km+ - Var Var 3 kt METAR FMEE 291900Z AUTO VRB03KT 9999 NCD 18/14 Q1019
22:30
V
18 °C 10 km+ - 200° 200° 5 kt METAR FMEE 291830Z AUTO 20005KT 9999 NCD 18/14 Q1019
22:00
V
18 °C 10 km+ - 200° 200° 5 kt METAR FMEE 291800Z AUTO 20005KT 9999 NCD 18/14 Q1019
21:30
V
18 °C 10 km+ - 180° 180° 7 kt METAR FMEE 291730Z AUTO 18007KT 9999 NCD 18/14 Q1019
21:00
V
19 °C 10 km+ - 190° 190° 4 kt METAR FMEE 291700Z AUTO 19004KT 150V230 9999 NCD 19/14 Q1019
20:30
V
20 °C 10 km+ - 200° 200° 4 kt METAR FMEE 291630Z AUTO 20004KT 170V230 9999 NCD 20/14 Q1019
20:00
V
20 °C 10 km+ - 160° 160° 4 kt METAR FMEE 291600Z AUTO 16004KT 9999 NCD 20/14 Q1019
19:30
V
21 °C 10 km+ - 130° 130° 4 kt METAR FMEE 291530Z AUTO 13004KT 9999 NCD 21/15 Q1019
19:00
V
21 °C 10 km+ - 140° 140° 5 kt METAR FMEE 291500Z AUTO 14005KT 110V170 9999 NCD 21/14 Q1018
18:30
V
22 °C 10 km+ - 080° 080° 7 kt METAR FMEE 291430Z AUTO 08007KT 9999 NCD 22/15 Q1018
18:00
V
23 °C 10 km+ - 100° 100° 10 kt METAR FMEE 291400Z AUTO 10010KT 9999 NCD 23/14 Q1018
17:30
V
24 °C 10 km+ - 090° 090° 10 kt METAR FMEE 291330Z AUTO 09010KT 9999 NCD 24/14 Q1018
17:00
V
24 °C 10 km+ - 080° 080° 12 kt METAR FMEE 291300Z AUTO 08012KT 9999 SCT052/// 24/14 Q1018
16:30
V
25 °C 10 km+ 5.600 ft 080° 080° 14 kt METAR FMEE 291230Z AUTO 08014KT 9999 FEW046/// BKN056/// 25/14 Q1018
16:00
V
24 °C 10 km+ 4.600 ft 090° 090° 14 kt METAR FMEE 291200Z AUTO 09014KT 9999 BKN046/// BKN054/// 24/16 Q1018
15:30
V
25 °C 10 km+ - 090° 090° 19 kt METAR FMEE 291130Z AUTO 09019KT 9999 FEW056/// 25/16 Q1018
15:00
V
26 °C 10 km+ - 090° 090° 19 kt METAR FMEE 291100Z AUTO 09019KT 9999 FEW058/// 26/16 Q1018
14:30
V
26 °C 10 km+ - 090° 090° 18 kt METAR FMEE 291030Z AUTO 09018KT 9999 FEW058/// 26/15 Q1018
14:00
V
26 °C 10 km+ - 080° 080° 20 kt METAR FMEE 291000Z AUTO 08020KT 9999 NCD 26/17 Q1018
13:30
V
25 °C 10 km+ - 090° 090° 20 kt METAR FMEE 290930Z AUTO 09020KT 9999 NCD 25/16 Q1018
13:00
V
25 °C 10 km+ - 090° 090° 20 kt METAR FMEE 290900Z AUTO 09020KT 9999 NCD 25/16 Q1018
Starsze dane

My i osoby trzecie śledzimy twoje zachowanie w internecie na naszej stronie za pomocą plików cookie. Jeśli kontynuujesz, zakładamy, że zgadzasz się z naszą polityką plików cookie. Dowiedz się więcej